createdAt,value
2023-11-03T00:01:21.542Z,52.32
2023-11-03T00:03:49.335Z,52.38
2023-11-03T00:06:17.117Z,52.32
2023-11-03T00:08:44.690Z,52.15
2023-11-03T00:11:12.401Z,52.01
2023-11-03T00:13:40.661Z,52.33
2023-11-03T00:16:09.588Z,52.53
2023-11-03T00:18:37.418Z,52.42
2023-11-03T00:21:05.006Z,52.50
2023-11-03T00:23:32.877Z,52.28
2023-11-03T00:26:00.610Z,52.15
2023-11-03T00:28:28.276Z,51.78
2023-11-03T00:30:55.769Z,51.71
2023-11-03T00:33:23.560Z,51.84
2023-11-03T00:35:51.621Z,51.63
2023-11-03T00:38:19.647Z,51.59
2023-11-03T00:40:47.313Z,51.45
2023-11-03T00:43:15.241Z,51.33
2023-11-03T00:45:42.705Z,50.78
2023-11-03T00:48:10.481Z,51.07
2023-11-03T00:50:38.087Z,50.54
2023-11-03T00:53:05.482Z,50.84
2023-11-03T00:55:33.207Z,50.64
2023-11-03T00:58:01.093Z,51.11
2023-11-03T01:00:29.370Z,51.34
2023-11-03T01:02:57.187Z,51.62
2023-11-03T01:05:26.081Z,51.79
2023-11-03T01:07:54.038Z,51.70
2023-11-03T01:10:23.793Z,52.16
2023-11-03T01:12:51.736Z,52.29
2023-11-03T01:15:21.974Z,52.57
2023-11-03T01:17:51.545Z,52.78
2023-11-03T01:20:29.135Z,52.65
2023-11-03T01:22:57.227Z,52.75
2023-11-03T01:25:25.713Z,52.67
2023-11-03T01:27:53.464Z,52.72
2023-11-03T01:30:21.918Z,52.72
2023-11-03T01:32:54.063Z,52.96
2023-11-03T01:35:22.814Z,52.70
2023-11-03T01:37:50.362Z,52.89
2023-11-03T01:40:18.064Z,52.62
2023-11-03T01:42:45.834Z,52.73
2023-11-03T01:45:13.259Z,52.88
2023-11-03T01:47:40.715Z,52.57
2023-11-03T01:50:10.243Z,52.53
2023-11-03T01:52:39.788Z,52.46
2023-11-03T01:55:07.629Z,52.64
2023-11-03T01:57:35.745Z,52.13
2023-11-03T02:00:05.328Z,52.40
2023-11-03T02:02:33.839Z,52.30
2023-11-03T02:05:04.120Z,52.18
2023-11-03T02:07:31.621Z,52.24
2023-11-03T02:09:59.438Z,52.25
2023-11-03T02:12:27.620Z,52.39
2023-11-03T02:14:55.159Z,52.20
2023-11-03T02:17:24.376Z,52.59
2023-11-03T02:19:52.119Z,52.51
2023-11-03T02:22:19.573Z,52.46
2023-11-03T02:24:47.350Z,52.38
2023-11-03T02:27:14.762Z,52.33
2023-11-03T02:29:42.137Z,52.42
2023-11-03T02:32:11.217Z,52.20
2023-11-03T02:34:38.601Z,52.13
2023-11-03T02:37:06.196Z,52.10
2023-11-03T02:39:34.010Z,51.77
2023-11-03T02:42:01.373Z,51.73
2023-11-03T02:44:28.728Z,51.83
2023-11-03T02:46:56.469Z,52.15
2023-11-03T02:49:23.904Z,51.94
2023-11-03T02:51:52.132Z,52.34
2023-11-03T02:54:19.942Z,52.06
2023-11-03T02:56:47.352Z,52.48
2023-11-03T02:59:14.798Z,52.30
2023-11-03T03:01:42.513Z,52.67
2023-11-03T03:04:10.222Z,52.72
2023-11-03T03:06:37.728Z,52.80
2023-11-03T03:09:06.221Z,53.27
2023-11-03T03:11:33.618Z,53.07
2023-11-03T03:14:01.094Z,53.08
2023-11-03T03:16:28.731Z,53.02
2023-11-03T03:18:56.323Z,52.93
2023-11-03T03:21:24.627Z,52.78
2023-11-03T03:23:52.314Z,52.85
2023-11-03T03:26:19.735Z,52.68
2023-11-03T03:28:47.372Z,52.53
2023-11-03T03:31:15.123Z,52.39
2023-11-03T03:33:43.141Z,52.24
2023-11-03T03:36:11.039Z,52.22
2023-11-03T03:38:38.782Z,51.83
2023-11-03T03:41:12.190Z,51.95
2023-11-03T03:43:39.920Z,52.17
2023-11-03T03:46:07.806Z,52.18
2023-11-03T03:48:35.228Z,52.44
2023-11-03T03:51:03.000Z,52.56
2023-11-03T03:53:31.311Z,52.75
2023-11-03T03:55:59.970Z,52.92
2023-11-03T03:58:27.680Z,52.93
2023-11-03T04:00:55.164Z,52.90
2023-11-03T04:03:22.909Z,52.93
2023-11-03T04:05:50.350Z,52.97
2023-11-03T04:08:17.847Z,53.03
2023-11-03T04:10:45.530Z,53.10
2023-11-03T04:13:13.087Z,53.11
2023-11-03T04:15:40.499Z,53.12
2023-11-03T04:18:08.619Z,53.04
2023-11-03T04:20:36.069Z,53.27
2023-11-03T04:23:03.496Z,53.38
2023-11-03T04:25:31.177Z,53.21
2023-11-03T04:27:58.586Z,53.03
2023-11-03T04:30:25.976Z,53.68
2023-11-03T04:32:53.648Z,53.74
2023-11-03T04:35:21.071Z,53.26
2023-11-03T04:37:51.080Z,53.85
2023-11-03T04:40:22.337Z,53.67
2023-11-03T04:42:49.763Z,53.49
2023-11-03T04:45:17.601Z,53.70
2023-11-03T04:47:45.413Z,53.47
2023-11-03T04:50:12.999Z,53.50
2023-11-03T04:52:40.424Z,53.56
2023-11-03T04:55:09.840Z,53.64
2023-11-03T04:57:37.430Z,53.76
2023-11-03T05:00:10.477Z,53.58
2023-11-03T05:02:38.239Z,54.05
2023-11-03T05:05:06.460Z,53.90
2023-11-03T05:07:34.833Z,53.80
2023-11-03T05:10:02.715Z,54.07
2023-11-03T05:12:30.140Z,53.50
2023-11-03T05:14:57.715Z,53.92
2023-11-03T05:17:25.420Z,53.45
2023-11-03T05:19:52.835Z,53.59
2023-11-03T05:22:20.286Z,53.56
2023-11-03T05:24:47.984Z,53.15
2023-11-03T05:27:15.462Z,53.36
2023-11-03T05:29:42.877Z,53.71
2023-11-03T05:32:12.849Z,53.69
2023-11-03T05:34:41.676Z,53.48
2023-11-03T05:37:11.903Z,53.80
2023-11-03T05:39:39.552Z,53.98
2023-11-03T05:42:07.243Z,54.16
2023-11-03T05:44:34.891Z,53.62
2023-11-03T05:47:02.829Z,53.64
2023-11-03T05:49:30.299Z,53.59
2023-11-03T05:51:57.918Z,53.80
2023-11-03T05:54:25.685Z,53.79
2023-11-03T05:56:53.378Z,53.48
2023-11-03T05:59:20.939Z,53.45
2023-11-03T06:01:48.794Z,53.30
2023-11-03T06:04:16.481Z,53.52
2023-11-03T06:06:44.336Z,53.75
2023-11-03T06:09:15.850Z,53.94
2023-11-03T06:11:43.512Z,54.10
2023-11-03T06:14:11.976Z,54.04
2023-11-03T06:16:39.682Z,53.95
2023-11-03T06:19:07.427Z,53.91
2023-11-03T06:21:34.853Z,53.52
2023-11-03T06:24:02.662Z,53.50
2023-11-03T06:26:30.324Z,53.44
2023-11-03T06:28:57.944Z,53.62
2023-11-03T06:31:25.511Z,53.46
2023-11-03T06:33:53.330Z,53.42
2023-11-03T06:36:20.751Z,53.25
2023-11-03T06:38:48.311Z,53.08
2023-11-03T06:41:16.059Z,52.99
2023-11-03T06:43:46.559Z,53.08
2023-11-03T06:46:15.988Z,53.40
2023-11-03T06:48:44.402Z,53.28
2023-11-03T06:51:12.939Z,53.54
2023-11-03T06:53:40.743Z,53.72
2023-11-03T06:56:08.559Z,53.98
2023-11-03T06:58:36.329Z,54.69
2023-11-03T07:01:05.617Z,55.00
2023-11-03T07:03:33.857Z,55.13
2023-11-03T07:06:04.785Z,55.75
2023-11-03T07:08:32.478Z,55.70
2023-11-03T07:10:59.928Z,56.46
2023-11-03T07:13:29.663Z,56.12
2023-11-03T07:15:57.489Z,56.30
2023-11-03T07:18:24.921Z,57.14
2023-11-03T07:20:52.319Z,57.05
2023-11-03T07:23:22.677Z,57.17
2023-11-03T07:25:51.922Z,58.66
2023-11-03T07:28:19.757Z,60.16
2023-11-03T07:30:47.230Z,59.00
2023-11-03T07:33:14.753Z,57.96
2023-11-03T07:35:42.500Z,57.63
2023-11-03T07:38:10.153Z,57.78
2023-11-03T07:40:37.774Z,57.77
2023-11-03T07:43:07.096Z,58.47
2023-11-03T07:45:34.641Z,58.55
2023-11-03T07:48:02.636Z,59.13
2023-11-03T07:50:30.484Z,59.28
2023-11-03T07:52:58.038Z,59.00
2023-11-03T07:55:26.001Z,59.03
2023-11-03T07:57:54.273Z,59.52
2023-11-03T08:00:24.038Z,59.87
2023-11-03T08:02:52.100Z,60.20
2023-11-03T08:05:19.803Z,60.41
2023-11-03T08:07:47.306Z,60.16
2023-11-03T08:10:15.101Z,60.35
2023-11-03T08:12:42.476Z,60.56
2023-11-03T08:15:15.026Z,60.39
2023-11-03T08:17:44.976Z,60.45
2023-11-03T08:20:14.574Z,60.54
2023-11-03T08:22:46.087Z,60.51
2023-11-03T08:25:14.020Z,60.69
2023-11-03T08:27:41.580Z,60.49
2023-11-03T08:30:12.469Z,60.74
2023-11-03T08:32:40.199Z,61.09
2023-11-03T08:35:09.126Z,60.95
2023-11-03T08:37:36.573Z,60.82
2023-11-03T08:40:07.323Z,60.86
2023-11-03T08:42:35.550Z,61.42
2023-11-03T08:45:03.604Z,61.48
2023-11-03T08:47:32.666Z,61.43
2023-11-03T08:50:00.223Z,61.76
2023-11-03T08:52:27.980Z,62.31
2023-11-03T08:54:56.179Z,62.19
2023-11-03T08:57:24.257Z,62.79
2023-11-03T08:59:52.560Z,63.16
2023-11-03T09:02:21.295Z,63.50
2023-11-03T09:04:49.731Z,63.91
2023-11-03T09:07:17.811Z,64.14
2023-11-03T09:09:48.680Z,64.28
2023-11-03T09:12:25.672Z,64.36
2023-11-03T09:14:57.203Z,64.33
2023-11-03T09:17:25.463Z,64.08
2023-11-03T09:20:05.535Z,63.65
2023-11-03T09:22:38.871Z,63.85
2023-11-03T09:25:13.856Z,63.16
2023-11-03T09:27:43.243Z,63.59
2023-11-03T09:30:12.153Z,63.35
2023-11-03T09:32:43.755Z,63.91
2023-11-03T09:35:12.474Z,63.32
2023-11-03T09:37:43.399Z,62.84
2023-11-03T09:40:11.968Z,63.32
2023-11-03T09:42:43.075Z,63.58
2023-11-03T09:45:16.682Z,64.02
2023-11-03T09:47:46.717Z,63.62
2023-11-03T09:50:16.067Z,64.16
2023-11-03T09:52:51.009Z,64.52
2023-11-03T09:55:23.009Z,64.92
2023-11-03T09:58:02.662Z,64.99
2023-11-03T10:00:38.241Z,64.90
2023-11-03T10:03:07.093Z,64.99
2023-11-03T10:05:37.704Z,65.20
2023-11-03T10:08:15.457Z,65.62
2023-11-03T10:10:46.809Z,65.89
2023-11-03T10:13:17.192Z,65.13
2023-11-03T10:15:45.460Z,65.08
2023-11-03T10:18:14.015Z,65.48
2023-11-03T10:20:42.569Z,65.84
2023-11-03T10:23:10.729Z,65.56
2023-11-03T10:25:38.340Z,64.63
2023-11-03T10:28:08.648Z,64.64
2023-11-03T10:30:38.639Z,64.29
2023-11-03T10:33:07.168Z,63.82
2023-11-03T10:35:34.745Z,63.81
2023-11-03T10:38:04.056Z,63.70
2023-11-03T10:40:31.522Z,63.40
2023-11-03T10:43:02.110Z,63.24
2023-11-03T10:45:32.907Z,63.01
2023-11-03T10:48:28.100Z,63.00
2023-11-03T10:51:00.817Z,63.40
2023-11-03T10:53:39.216Z,63.28
2023-11-03T10:58:41.110Z,63.48
2023-11-03T11:01:18.161Z,63.84
2023-11-03T11:04:02.559Z,63.80
2023-11-03T11:06:33.064Z,63.66
2023-11-03T11:09:08.325Z,63.36
2023-11-03T11:11:38.862Z,63.58
2023-11-03T11:14:27.126Z,63.83
2023-11-03T11:16:59.839Z,63.61
2023-11-03T11:19:46.153Z,63.93
2023-11-03T11:22:15.958Z,63.66
2023-11-03T11:24:46.216Z,63.44
2023-11-03T11:27:23.452Z,63.72
2023-11-03T11:29:52.318Z,63.90
2023-11-03T11:32:26.818Z,62.97
2023-11-03T11:34:54.740Z,62.68
2023-11-03T11:37:27.024Z,62.56
2023-11-03T11:40:02.071Z,63.19
2023-11-03T11:42:37.087Z,63.24
2023-11-03T11:45:06.699Z,63.24
2023-11-03T11:47:47.590Z,62.92
2023-11-03T11:50:17.719Z,63.04
2023-11-03T11:52:50.751Z,62.99
2023-11-03T11:55:20.296Z,63.61
2023-11-03T11:58:03.724Z,63.34
2023-11-03T12:00:38.316Z,63.16
2023-11-03T12:03:23.937Z,63.95
2023-11-03T12:05:52.101Z,63.70
2023-11-03T12:08:19.808Z,63.71
2023-11-03T12:10:51.202Z,63.80
2023-11-03T12:13:19.016Z,64.19
2023-11-03T12:15:48.309Z,63.99
2023-11-03T12:18:17.685Z,63.89
2023-11-03T12:21:00.655Z,64.11
2023-11-03T12:23:30.086Z,64.37
2023-11-03T12:26:08.912Z,64.88
2023-11-03T12:28:36.657Z,64.96
2023-11-03T12:31:07.853Z,65.04
2023-11-03T12:33:52.276Z,65.01
2023-11-03T12:36:20.010Z,63.98
2023-11-03T12:38:48.109Z,63.62
2023-11-03T12:41:17.994Z,64.22
2023-11-03T12:43:50.413Z,63.69
2023-11-03T12:46:18.128Z,63.73
2023-11-03T12:48:45.861Z,63.88
2023-11-03T12:51:14.290Z,64.07
2023-11-03T12:53:49.131Z,63.74
2023-11-03T12:56:20.460Z,63.95
2023-11-03T12:58:48.664Z,64.19
2023-11-03T13:01:19.089Z,64.06
2023-11-03T13:03:49.120Z,64.11
2023-11-03T13:06:18.947Z,64.23
2023-11-03T13:08:46.789Z,65.45
2023-11-03T13:11:14.332Z,65.46
2023-11-03T13:13:41.817Z,65.59
2023-11-03T13:16:09.661Z,65.46
2023-11-03T13:18:37.263Z,65.17
2023-11-03T13:21:06.093Z,65.58
2023-11-03T13:23:33.816Z,66.09
2023-11-03T13:26:01.243Z,65.88
2023-11-03T13:28:30.918Z,65.92
2023-11-03T13:31:00.716Z,65.63
2023-11-03T13:33:41.168Z,65.53
2023-11-03T13:36:13.129Z,65.44
2023-11-03T13:38:55.042Z,65.25
2023-11-03T13:41:22.871Z,64.63
2023-11-03T13:43:50.222Z,64.60
2023-11-03T13:46:22.009Z,64.72
2023-11-03T13:48:50.004Z,64.40
2023-11-03T13:51:17.569Z,63.85
2023-11-03T13:53:45.342Z,63.80
2023-11-03T13:56:13.060Z,64.08
2023-11-03T13:58:43.200Z,64.31
2023-11-03T14:01:10.687Z,64.19
2023-11-03T14:03:38.518Z,64.23
2023-11-03T14:06:09.751Z,64.04
2023-11-03T14:08:37.509Z,63.87
2023-11-03T14:11:06.149Z,63.63
2023-11-03T14:13:33.632Z,63.82
2023-11-03T14:16:04.308Z,63.38
2023-11-03T14:18:34.277Z,64.02
2023-11-03T14:21:04.834Z,63.67
2023-11-03T14:23:32.530Z,64.19
2023-11-03T14:25:59.945Z,64.62
2023-11-03T14:28:27.463Z,64.54
2023-11-03T14:30:55.258Z,64.57
2023-11-03T14:33:25.754Z,64.34
2023-11-03T14:35:54.116Z,63.89
2023-11-03T14:38:22.074Z,64.06
2023-11-03T14:40:57.297Z,64.16
2023-11-03T14:43:25.022Z,64.12
2023-11-03T14:45:54.549Z,63.75
2023-11-03T14:48:24.754Z,63.39
2023-11-03T14:50:55.521Z,63.63
2023-11-03T14:53:23.036Z,62.67
2023-11-03T14:55:53.647Z,62.88
2023-11-03T15:00:48.825Z,62.56
2023-11-03T15:05:44.050Z,61.87
2023-11-03T15:08:11.424Z,62.09
2023-11-03T15:10:38.842Z,62.43
2023-11-03T15:13:06.560Z,62.33
2023-11-03T15:15:38.563Z,62.08
2023-11-03T15:18:09.167Z,61.59
2023-11-03T15:20:37.207Z,61.80
2023-11-03T15:23:04.754Z,61.81
2023-11-03T15:25:32.456Z,61.63
2023-11-03T15:27:59.999Z,61.40
2023-11-03T15:30:29.734Z,61.52
2023-11-03T15:32:57.506Z,61.00
2023-11-03T15:35:26.929Z,60.55
2023-11-03T15:37:54.815Z,61.23
2023-11-03T15:40:25.000Z,61.47
2023-11-03T15:42:52.588Z,61.30
2023-11-03T15:45:20.231Z,61.09
2023-11-03T15:47:49.342Z,60.99
2023-11-03T15:50:20.321Z,60.91
2023-11-03T15:52:49.780Z,60.60
2023-11-03T15:55:17.606Z,60.69
2023-11-03T15:57:48.320Z,60.36
2023-11-03T16:00:16.083Z,60.21
2023-11-03T16:02:45.161Z,60.39
2023-11-03T16:05:14.056Z,59.91
2023-11-03T16:07:45.015Z,59.89
2023-11-03T16:10:16.510Z,59.86
2023-11-03T16:12:45.377Z,59.85
2023-11-03T16:15:13.170Z,59.66
2023-11-03T16:17:41.895Z,60.18
2023-11-03T16:20:10.622Z,59.91
2023-11-03T16:22:38.501Z,60.09
2023-11-03T16:25:06.535Z,60.33
2023-11-03T16:27:34.026Z,60.61
2023-11-03T16:30:02.397Z,60.57
2023-11-03T16:32:30.838Z,61.14
2023-11-03T16:34:59.740Z,61.05
2023-11-03T16:37:27.657Z,61.62
2023-11-03T16:39:55.104Z,61.36
2023-11-03T16:42:23.417Z,61.43
2023-11-03T16:44:51.407Z,61.62
2023-11-03T16:47:19.499Z,61.61
2023-11-03T16:49:46.965Z,61.68
2023-11-03T16:52:14.737Z,61.84
2023-11-03T16:54:42.391Z,61.93
2023-11-03T16:57:09.826Z,61.41
2023-11-03T16:59:38.193Z,61.23
2023-11-03T17:02:05.974Z,61.15
2023-11-03T17:04:36.829Z,61.11
2023-11-03T17:07:06.501Z,60.68
2023-11-03T17:09:34.154Z,61.36
2023-11-03T17:12:01.887Z,61.08
2023-11-03T17:14:29.659Z,60.97
2023-11-03T17:16:57.397Z,60.61
2023-11-03T17:19:26.125Z,61.15
2023-11-03T17:21:53.894Z,61.22
2023-11-03T17:24:21.346Z,61.42
2023-11-03T17:26:52.172Z,61.27
2023-11-03T17:29:21.964Z,61.35
2023-11-03T17:31:49.715Z,61.55
2023-11-03T17:34:17.294Z,61.36
2023-11-03T17:36:45.020Z,60.72
2023-11-03T17:39:16.124Z,60.71
2023-11-03T17:41:44.486Z,60.61
2023-11-03T17:44:13.779Z,60.53
2023-11-03T17:46:42.531Z,60.21
2023-11-03T17:49:10.061Z,59.71
2023-11-03T17:51:40.730Z,59.70
2023-11-03T17:54:09.248Z,60.14
2023-11-03T17:56:41.918Z,60.12
2023-11-03T17:59:09.594Z,60.69
2023-11-03T18:01:37.093Z,60.63
2023-11-03T18:04:05.177Z,60.21
2023-11-03T18:06:32.880Z,62.43
2023-11-03T18:09:00.794Z,59.17
2023-11-03T18:11:29.307Z,57.72
2023-11-03T18:13:56.712Z,56.97
2023-11-03T18:16:26.576Z,57.96
2023-11-03T18:18:54.594Z,57.30
2023-11-03T18:21:23.246Z,58.19
2023-11-03T18:23:50.625Z,57.64
2023-11-03T18:26:18.338Z,57.99
2023-11-03T18:28:45.813Z,57.89
2023-11-03T18:31:15.284Z,58.38
2023-11-03T18:33:43.132Z,58.66
2023-11-03T18:36:13.177Z,58.77
2023-11-03T18:38:42.215Z,57.97
2023-11-03T18:41:09.856Z,57.31
2023-11-03T18:43:37.408Z,57.99
2023-11-03T18:46:04.912Z,58.01
2023-11-03T18:48:32.748Z,58.91
2023-11-03T18:57:09.379Z,59.21
2023-11-03T19:00:21.501Z,59.05
2023-11-03T19:02:18.500Z,59.29
2023-11-03T19:05:34.773Z,59.19
2023-11-03T19:07:34.521Z,59.11
2023-11-03T19:10:09.515Z,59.27
2023-11-03T19:12:37.240Z,59.32
2023-11-03T19:15:08.191Z,59.37
2023-11-03T19:17:38.788Z,58.93
2023-11-03T19:20:11.296Z,59.24
2023-11-03T19:22:39.720Z,59.46
2023-11-03T19:25:07.916Z,59.43
2023-11-03T19:27:35.630Z,59.41
2023-11-03T19:30:03.941Z,59.42
2023-11-03T19:32:32.453Z,59.44
2023-11-03T19:35:01.307Z,59.41
2023-11-03T19:37:28.822Z,59.34
2023-11-03T19:39:57.074Z,59.73
2023-11-03T19:42:24.827Z,59.67
2023-11-03T19:44:52.630Z,59.92
2023-11-03T19:47:20.052Z,59.80
2023-11-03T19:49:47.891Z,59.82
2023-11-03T19:52:17.710Z,60.15
2023-11-03T19:54:45.506Z,60.02
2023-11-03T19:57:13.490Z,59.98
2023-11-03T19:59:40.934Z,59.51
2023-11-03T20:02:08.590Z,59.97
2023-11-03T20:04:37.367Z,60.12
2023-11-03T20:07:07.666Z,60.20
2023-11-03T20:09:36.136Z,60.55
2023-11-03T20:12:04.289Z,60.27
2023-11-03T20:14:31.719Z,60.13
2023-11-03T20:16:59.915Z,59.87
2023-11-03T20:19:27.832Z,59.93
2023-11-03T20:21:55.280Z,59.78
2023-11-03T20:24:22.978Z,59.97
2023-11-03T20:26:50.728Z,60.09
2023-11-03T20:29:18.203Z,60.34
2023-11-03T20:31:47.307Z,60.59
2023-11-03T20:34:15.154Z,60.86
2023-11-03T20:36:43.130Z,60.86
2023-11-03T20:39:13.409Z,60.92
2023-11-03T20:41:44.331Z,60.99
2023-11-03T20:44:12.003Z,60.85
2023-11-03T20:46:39.475Z,60.76
2023-11-03T20:49:07.322Z,60.83
2023-11-03T20:51:35.124Z,60.97
2023-11-03T20:54:02.585Z,60.97
2023-11-03T20:56:30.303Z,60.90
2023-11-03T20:58:59.326Z,60.91
2023-11-03T21:01:28.158Z,60.81
2023-11-03T21:03:55.967Z,60.76
2023-11-03T21:06:25.544Z,60.87
2023-11-03T21:08:53.038Z,60.83
2023-11-03T21:11:20.749Z,60.71
2023-11-03T21:13:48.363Z,60.65
2023-11-03T21:16:15.884Z,60.46
2023-11-03T21:18:43.689Z,60.70
2023-11-03T21:21:12.484Z,60.69
2023-11-03T21:23:40.934Z,60.54
2023-11-03T21:26:08.846Z,60.44
2023-11-03T21:28:37.858Z,60.48
2023-11-03T21:31:06.121Z,60.59
2023-11-03T21:33:34.152Z,60.63
2023-11-03T21:36:01.969Z,60.83
2023-11-03T21:38:32.545Z,60.95
2023-11-03T21:41:00.783Z,60.74
2023-11-03T21:43:28.485Z,60.91
2023-11-03T21:45:55.922Z,60.68
2023-11-03T21:48:23.753Z,60.53
2023-11-03T21:50:51.179Z,60.73
2023-11-03T21:53:18.606Z,60.62
2023-11-03T21:55:46.457Z,60.46
2023-11-03T21:58:14.218Z,60.53
2023-11-03T22:00:42.273Z,60.85
2023-11-03T22:03:10.145Z,61.14
2023-11-03T22:05:37.838Z,61.13
2023-11-03T22:08:05.761Z,60.97
2023-11-03T22:10:33.454Z,61.16
2023-11-03T22:13:00.916Z,61.23
2023-11-03T22:15:28.419Z,61.10
2023-11-03T22:17:57.946Z,60.97
2023-11-03T22:20:26.676Z,60.98
2023-11-03T22:22:54.492Z,60.87
2023-11-03T22:25:22.301Z,60.85
2023-11-03T22:27:49.979Z,60.81
2023-11-03T22:30:17.921Z,60.69
2023-11-03T22:32:46.551Z,60.89
2023-11-03T22:35:14.094Z,60.80
2023-11-03T22:37:41.504Z,60.77
2023-11-03T22:40:13.421Z,60.75
2023-11-03T22:42:40.933Z,60.57
2023-11-03T22:45:12.910Z,60.55
2023-11-03T22:47:42.899Z,60.62
2023-11-03T22:50:13.913Z,60.20
2023-11-03T22:52:42.345Z,60.10
2023-11-03T22:55:13.556Z,60.09
2023-11-03T22:57:42.193Z,60.44
2023-11-03T23:00:14.080Z,60.61
2023-11-03T23:02:42.054Z,60.51
2023-11-03T23:05:09.670Z,60.50
2023-11-03T23:07:37.139Z,60.56
2023-11-03T23:10:05.212Z,60.69
2023-11-03T23:12:32.892Z,60.42
2023-11-03T23:15:00.375Z,60.49
2023-11-03T23:17:28.120Z,60.33
2023-11-03T23:19:55.647Z,59.97
2023-11-03T23:22:23.149Z,60.04
2023-11-03T23:24:50.933Z,60.00
2023-11-03T23:27:18.450Z,59.69
2023-11-03T23:29:46.126Z,59.49
2023-11-03T23:32:13.804Z,59.87
2023-11-03T23:34:41.344Z,59.84
2023-11-03T23:37:09.292Z,59.64
2023-11-03T23:39:38.145Z,59.79
2023-11-03T23:42:05.739Z,60.07
2023-11-03T23:44:33.548Z,59.98
2023-11-03T23:47:01.256Z,60.06
2023-11-03T23:49:28.798Z,59.99
2023-11-03T23:51:56.277Z,59.96
2023-11-03T23:54:24.015Z,60.10
2023-11-03T23:56:52.164Z,59.69
2023-11-03T23:59:19.768Z,59.77
